sensor_id;sensor_type;location;lat;lon;timestamp;P1;durP1;ratioP1;P2;durP2;ratioP2
76256;SDS011;65074;50.436;8.672;2023-03-01T00:01:14;12.82;;;6.32;;
76256;SDS011;65074;50.436;8.672;2023-03-01T00:03:41;17.10;;;8.02;;
76256;SDS011;65074;50.436;8.672;2023-03-01T00:06:07;12.05;;;7.30;;
76256;SDS011;65074;50.436;8.672;2023-03-01T00:08:33;11.40;;;5.88;;
76256;SDS011;65074;50.436;8.672;2023-03-01T00:11:03;10.50;;;6.47;;
76256;SDS011;65074;50.436;8.672;2023-03-01T00:13:31;11.57;;;6.43;;
76256;SDS011;65074;50.436;8.672;2023-03-01T00:15:57;18.05;;;6.95;;
76256;SDS011;65074;50.436;8.672;2023-03-01T00:18:22;14.27;;;7.68;;
76256;SDS011;65074;50.436;8.672;2023-03-01T00:20:55;9.98;;;4.68;;
76256;SDS011;65074;50.436;8.672;2023-03-01T00:23:21;14.80;;;7.15;;
76256;SDS011;65074;50.436;8.672;2023-03-01T00:25:47;13.48;;;5.82;;
76256;SDS011;65074;50.436;8.672;2023-03-01T00:28:13;15.15;;;6.47;;
76256;SDS011;65074;50.436;8.672;2023-03-01T00:30:39;9.52;;;4.70;;
76256;SDS011;65074;50.436;8.672;2023-03-01T00:33:04;13.80;;;6.80;;
76256;SDS011;65074;50.436;8.672;2023-03-01T00:35:31;16.05;;;5.15;;
76256;SDS011;65074;50.436;8.672;2023-03-01T00:37:58;16.45;;;7.88;;
76256;SDS011;65074;50.436;8.672;2023-03-01T00:40:24;12.68;;;7.15;;
76256;SDS011;65074;50.436;8.672;2023-03-01T00:42:49;16.15;;;6.80;;
76256;SDS011;65074;50.436;8.672;2023-03-01T00:45:15;11.48;;;5.55;;
76256;SDS011;65074;50.436;8.672;2023-03-01T00:47:41;14.63;;;5.75;;
76256;SDS011;65074;50.436;8.672;2023-03-01T00:50:06;14.43;;;6.95;;
76256;SDS011;65074;50.436;8.672;2023-03-01T00:52:32;14.38;;;6.22;;
76256;SDS011;65074;50.436;8.672;2023-03-01T00:54:58;13.93;;;6.40;;
76256;SDS011;65074;50.436;8.672;2023-03-01T00:57:23;13.35;;;5.00;;
76256;SDS011;65074;50.436;8.672;2023-03-01T00:59:49;14.63;;;6.97;;
76256;SDS011;65074;50.436;8.672;2023-03-01T01:02:14;16.73;;;7.03;;
76256;SDS011;65074;50.436;8.672;2023-03-01T01:04:40;13.63;;;6.25;;
76256;SDS011;65074;50.436;8.672;2023-03-01T01:07:05;14.85;;;6.95;;
76256;SDS011;65074;50.436;8.672;2023-03-01T01:09:31;11.30;;;6.20;;
76256;SDS011;65074;50.436;8.672;2023-03-01T01:11:56;13.75;;;6.25;;
76256;SDS011;65074;50.436;8.672;2023-03-01T01:14:21;15.00;;;7.53;;
76256;SDS011;65074;50.436;8.672;2023-03-01T01:16:47;12.38;;;5.90;;
76256;SDS011;65074;50.436;8.672;2023-03-01T01:19:13;15.95;;;7.07;;
76256;SDS011;65074;50.436;8.672;2023-03-01T01:21:39;9.95;;;5.00;;
76256;SDS011;65074;50.436;8.672;2023-03-01T01:24:06;11.75;;;5.50;;
76256;SDS011;65074;50.436;8.672;2023-03-01T01:26:32;9.43;;;5.32;;
76256;SDS011;65074;50.436;8.672;2023-03-01T01:28:59;12.65;;;5.93;;
76256;SDS011;65074;50.436;8.672;2023-03-01T01:31:25;11.23;;;5.43;;
76256;SDS011;65074;50.436;8.672;2023-03-01T01:33:52;11.45;;;5.50;;
76256;SDS011;65074;50.436;8.672;2023-03-01T01:36:18;17.80;;;7.80;;
76256;SDS011;65074;50.436;8.672;2023-03-01T01:38:44;13.80;;;5.90;;
76256;SDS011;65074;50.436;8.672;2023-03-01T01:41:12;16.13;;;7.13;;
76256;SDS011;65074;50.436;8.672;2023-03-01T01:43:39;9.07;;;4.88;;
76256;SDS011;65074;50.436;8.672;2023-03-01T01:48:48;13.15;;;6.72;;
76256;SDS011;65074;50.436;8.672;2023-03-01T01:51:22;10.00;;;5.00;;
76256;SDS011;65074;50.436;8.672;2023-03-01T01:53:51;14.45;;;6.43;;
76256;SDS011;65074;50.436;8.672;2023-03-01T01:56:21;16.27;;;7.25;;
76256;SDS011;65074;50.436;8.672;2023-03-01T01:58:49;11.55;;;4.88;;
76256;SDS011;65074;50.436;8.672;2023-03-01T02:01:15;14.77;;;7.38;;
76256;SDS011;65074;50.436;8.672;2023-03-01T02:03:41;14.50;;;6.45;;
76256;SDS011;65074;50.436;8.672;2023-03-01T02:08:44;11.13;;;6.15;;
76256;SDS011;65074;50.436;8.672;2023-03-01T02:11:12;11.93;;;6.22;;
76256;SDS011;65074;50.436;8.672;2023-03-01T02:13:39;11.43;;;5.13;;
76256;SDS011;65074;50.436;8.672;2023-03-01T02:16:09;13.93;;;5.32;;
76256;SDS011;65074;50.436;8.672;2023-03-01T02:18:38;10.60;;;4.65;;
76256;SDS011;65074;50.436;8.672;2023-03-01T02:24:26;19.58;;;8.35;;
76256;SDS011;65074;50.436;8.672;2023-03-01T02:27:01;16.42;;;7.63;;
76256;SDS011;65074;50.436;8.672;2023-03-01T02:29:26;12.00;;;5.78;;
76256;SDS011;65074;50.436;8.672;2023-03-01T02:31:53;17.75;;;6.80;;
76256;SDS011;65074;50.436;8.672;2023-03-01T02:34:24;12.60;;;6.85;;
76256;SDS011;65074;50.436;8.672;2023-03-01T02:36:57;12.75;;;5.70;;
76256;SDS011;65074;50.436;8.672;2023-03-01T02:40:04;16.17;;;7.10;;
76256;SDS011;65074;50.436;8.672;2023-03-01T02:42:31;14.70;;;6.30;;
76256;SDS011;65074;50.436;8.672;2023-03-01T02:45:03;14.75;;;7.22;;
76256;SDS011;65074;50.436;8.672;2023-03-01T02:47:29;10.98;;;5.88;;
76256;SDS011;65074;50.436;8.672;2023-03-01T02:49:54;17.67;;;8.45;;
76256;SDS011;65074;50.436;8.672;2023-03-01T02:55:26;17.98;;;8.27;;
76256;SDS011;65074;50.436;8.672;2023-03-01T02:57:53;9.35;;;4.03;;
76256;SDS011;65074;50.436;8.672;2023-03-01T03:00:22;18.77;;;7.97;;
76256;SDS011;65074;50.436;8.672;2023-03-01T03:02:52;8.90;;;3.85;;
76256;SDS011;65074;50.436;8.672;2023-03-01T03:05:23;15.05;;;6.80;;
76256;SDS011;65074;50.436;8.672;2023-03-01T03:07:53;12.95;;;6.18;;
76256;SDS011;65074;50.436;8.672;2023-03-01T03:10:24;17.23;;;7.55;;
76256;SDS011;65074;50.436;8.672;2023-03-01T03:12:54;13.00;;;6.85;;
76256;SDS011;65074;50.436;8.672;2023-03-01T03:15:30;20.95;;;8.60;;
76256;SDS011;65074;50.436;8.672;2023-03-01T03:17:57;16.95;;;8.32;;
76256;SDS011;65074;50.436;8.672;2023-03-01T03:20:24;15.15;;;6.65;;
76256;SDS011;65074;50.436;8.672;2023-03-01T03:22:51;9.93;;;5.53;;
76256;SDS011;65074;50.436;8.672;2023-03-01T03:25:18;14.35;;;6.60;;
76256;SDS011;65074;50.436;8.672;2023-03-01T03:27:45;19.98;;;7.97;;
76256;SDS011;65074;50.436;8.672;2023-03-01T03:30:13;20.90;;;8.98;;
76256;SDS011;65074;50.436;8.672;2023-03-01T03:32:44;14.70;;;7.88;;
76256;SDS011;65074;50.436;8.672;2023-03-01T03:35:17;16.38;;;7.03;;
76256;SDS011;65074;50.436;8.672;2023-03-01T03:37:58;12.40;;;6.55;;
76256;SDS011;65074;50.436;8.672;2023-03-01T03:40:28;16.25;;;7.13;;
76256;SDS011;65074;50.436;8.672;2023-03-01T03:42:54;13.75;;;7.05;;
76256;SDS011;65074;50.436;8.672;2023-03-01T03:45:19;22.50;;;9.70;;
76256;SDS011;65074;50.436;8.672;2023-03-01T03:47:45;19.17;;;8.98;;
76256;SDS011;65074;50.436;8.672;2023-03-01T03:50:11;13.93;;;6.25;;
76256;SDS011;65074;50.436;8.672;2023-03-01T03:52:38;12.13;;;6.63;;
76256;SDS011;65074;50.436;8.672;2023-03-01T03:55:04;17.60;;;7.70;;
76256;SDS011;65074;50.436;8.672;2023-03-01T03:57:41;15.20;;;7.20;;
76256;SDS011;65074;50.436;8.672;2023-03-01T04:00:07;15.80;;;6.82;;
76256;SDS011;65074;50.436;8.672;2023-03-01T04:02:44;15.30;;;6.80;;
76256;SDS011;65074;50.436;8.672;2023-03-01T04:05:11;14.07;;;6.25;;
76256;SDS011;65074;50.436;8.672;2023-03-01T04:07:39;20.20;;;9.65;;
76256;SDS011;65074;50.436;8.672;2023-03-01T04:10:07;17.67;;;8.35;;
76256;SDS011;65074;50.436;8.672;2023-03-01T04:12:38;15.95;;;8.02;;
76256;SDS011;65074;50.436;8.672;2023-03-01T04:15:04;17.83;;;7.38;;
76256;SDS011;65074;50.436;8.672;2023-03-01T04:17:45;17.33;;;8.43;;
76256;SDS011;65074;50.436;8.672;2023-03-01T04:20:13;18.80;;;7.80;;
76256;SDS011;65074;50.436;8.672;2023-03-01T04:22:43;20.63;;;7.38;;
76256;SDS011;65074;50.436;8.672;2023-03-01T04:25:12;21.27;;;8.27;;
76256;SDS011;65074;50.436;8.672;2023-03-01T04:27:39;16.63;;;6.68;;
76256;SDS011;65074;50.436;8.672;2023-03-01T04:30:05;20.52;;;8.70;;
76256;SDS011;65074;50.436;8.672;2023-03-01T04:32:31;16.88;;;6.88;;
76256;SDS011;65074;50.436;8.672;2023-03-01T04:34:56;18.70;;;7.20;;
76256;SDS011;65074;50.436;8.672;2023-03-01T04:37:23;12.52;;;5.97;;
76256;SDS011;65074;50.436;8.672;2023-03-01T04:39:49;21.90;;;7.65;;
76256;SDS011;65074;50.436;8.672;2023-03-01T04:42:15;11.00;;;6.13;;
76256;SDS011;65074;50.436;8.672;2023-03-01T04:44:41;13.85;;;7.22;;
76256;SDS011;65074;50.436;8.672;2023-03-01T04:47:07;16.58;;;6.88;;
76256;SDS011;65074;50.436;8.672;2023-03-01T04:49:33;17.17;;;7.13;;
76256;SDS011;65074;50.436;8.672;2023-03-01T04:51:58;20.90;;;9.02;;
76256;SDS011;65074;50.436;8.672;2023-03-01T04:54:27;13.15;;;5.18;;
76256;SDS011;65074;50.436;8.672;2023-03-01T04:56:56;16.77;;;8.23;;
76256;SDS011;65074;50.436;8.672;2023-03-01T04:59:22;15.88;;;6.75;;
76256;SDS011;65074;50.436;8.672;2023-03-01T05:01:51;15.93;;;7.20;;
76256;SDS011;65074;50.436;8.672;2023-03-01T05:04:20;21.75;;;8.63;;
76256;SDS011;65074;50.436;8.672;2023-03-01T05:06:46;14.45;;;6.97;;
76256;SDS011;65074;50.436;8.672;2023-03-01T05:09:11;17.77;;;6.63;;
76256;SDS011;65074;50.436;8.672;2023-03-01T05:11:37;19.92;;;8.50;;
76256;SDS011;65074;50.436;8.672;2023-03-01T05:14:03;18.35;;;8.90;;
76256;SDS011;65074;50.436;8.672;2023-03-01T05:16:29;18.90;;;8.55;;
76256;SDS011;65074;50.436;8.672;2023-03-01T05:18:56;20.02;;;9.43;;
76256;SDS011;65074;50.436;8.672;2023-03-01T05:21:21;20.13;;;7.65;;
76256;SDS011;65074;50.436;8.672;2023-03-01T05:23:47;15.52;;;5.97;;
76256;SDS011;65074;50.436;8.672;2023-03-01T05:26:13;13.02;;;6.05;;
76256;SDS011;65074;50.436;8.672;2023-03-01T05:28:39;17.92;;;7.78;;
76256;SDS011;65074;50.436;8.672;2023-03-01T05:31:05;13.98;;;7.00;;
76256;SDS011;65074;50.436;8.672;2023-03-01T05:33:37;14.45;;;6.95;;
76256;SDS011;65074;50.436;8.672;2023-03-01T05:36:04;17.58;;;8.63;;
76256;SDS011;65074;50.436;8.672;2023-03-01T05:38:31;14.00;;;5.57;;
76256;SDS011;65074;50.436;8.672;2023-03-01T05:40:56;13.27;;;6.50;;
76256;SDS011;65074;50.436;8.672;2023-03-01T05:43:22;13.13;;;6.70;;
76256;SDS011;65074;50.436;8.672;2023-03-01T05:45:47;15.00;;;7.10;;
76256;SDS011;65074;50.436;8.672;2023-03-01T05:48:13;16.27;;;8.00;;
76256;SDS011;65074;50.436;8.672;2023-03-01T05:50:42;12.40;;;5.82;;
76256;SDS011;65074;50.436;8.672;2023-03-01T05:53:19;18.60;;;7.07;;
76256;SDS011;65074;50.436;8.672;2023-03-01T05:55:46;19.42;;;8.35;;
76256;SDS011;65074;50.436;8.672;2023-03-01T05:58:16;16.13;;;7.55;;
76256;SDS011;65074;50.436;8.672;2023-03-01T06:00:43;15.18;;;6.93;;
76256;SDS011;65074;50.436;8.672;2023-03-01T06:03:11;11.00;;;6.50;;
76256;SDS011;65074;50.436;8.672;2023-03-01T06:05:38;21.45;;;7.25;;
76256;SDS011;65074;50.436;8.672;2023-03-01T06:08:04;18.45;;;7.57;;
76256;SDS011;65074;50.436;8.672;2023-03-01T06:10:30;17.00;;;8.52;;
76256;SDS011;65074;50.436;8.672;2023-03-01T06:12:55;15.55;;;5.97;;
76256;SDS011;65074;50.436;8.672;2023-03-01T06:15:21;13.45;;;6.90;;
76256;SDS011;65074;50.436;8.672;2023-03-01T06:17:47;16.52;;;7.25;;
76256;SDS011;65074;50.436;8.672;2023-03-01T06:20:14;18.42;;;7.72;;
76256;SDS011;65074;50.436;8.672;2023-03-01T06:22:44;17.83;;;6.57;;
76256;SDS011;65074;50.436;8.672;2023-03-01T06:25:11;22.55;;;8.57;;
76256;SDS011;65074;50.436;8.672;2023-03-01T06:27:38;19.23;;;9.10;;
76256;SDS011;65074;50.436;8.672;2023-03-01T06:30:05;17.58;;;8.65;;
76256;SDS011;65074;50.436;8.672;2023-03-01T06:32:32;17.00;;;7.90;;
76256;SDS011;65074;50.436;8.672;2023-03-01T06:34:57;18.25;;;8.98;;
76256;SDS011;65074;50.436;8.672;2023-03-01T06:37:23;17.33;;;6.75;;
76256;SDS011;65074;50.436;8.672;2023-03-01T06:39:49;17.45;;;7.60;;
76256;SDS011;65074;50.436;8.672;2023-03-01T06:42:15;16.85;;;6.07;;
76256;SDS011;65074;50.436;8.672;2023-03-01T06:44:40;13.60;;;7.05;;
76256;SDS011;65074;50.436;8.672;2023-03-01T06:47:05;18.50;;;7.95;;
76256;SDS011;65074;50.436;8.672;2023-03-01T06:49:31;17.85;;;6.25;;
76256;SDS011;65074;50.436;8.672;2023-03-01T06:51:56;19.00;;;9.07;;
76256;SDS011;65074;50.436;8.672;2023-03-01T06:54:22;14.05;;;6.80;;
76256;SDS011;65074;50.436;8.672;2023-03-01T06:56:47;23.05;;;10.77;;
76256;SDS011;65074;50.436;8.672;2023-03-01T06:59:13;20.60;;;7.97;;
76256;SDS011;65074;50.436;8.672;2023-03-01T07:01:39;21.05;;;9.48;;
76256;SDS011;65074;50.436;8.672;2023-03-01T07:04:04;18.13;;;8.85;;
76256;SDS011;65074;50.436;8.672;2023-03-01T07:06:30;13.65;;;6.90;;
76256;SDS011;65074;50.436;8.672;2023-03-01T07:08:55;14.07;;;6.15;;
76256;SDS011;65074;50.436;8.672;2023-03-01T07:11:21;16.67;;;6.72;;
76256;SDS011;65074;50.436;8.672;2023-03-01T07:13:46;16.02;;;7.10;;
76256;SDS011;65074;50.436;8.672;2023-03-01T07:16:12;19.23;;;8.02;;
76256;SDS011;65074;50.436;8.672;2023-03-01T07:18:37;16.05;;;8.32;;
76256;SDS011;65074;50.436;8.672;2023-03-01T07:21:06;12.07;;;5.68;;
76256;SDS011;65074;50.436;8.672;2023-03-01T07:23:32;16.77;;;7.40;;
76256;SDS011;65074;50.436;8.672;2023-03-01T07:25:58;19.98;;;8.82;;
76256;SDS011;65074;50.436;8.672;2023-03-01T07:28:23;20.38;;;8.77;;
76256;SDS011;65074;50.436;8.672;2023-03-01T07:30:49;16.27;;;7.65;;
76256;SDS011;65074;50.436;8.672;2023-03-01T07:33:14;19.17;;;8.27;;
76256;SDS011;65074;50.436;8.672;2023-03-01T07:35:39;16.95;;;7.10;;
76256;SDS011;65074;50.436;8.672;2023-03-01T07:38:05;17.67;;;8.18;;
76256;SDS011;65074;50.436;8.672;2023-03-01T07:40:30;15.57;;;6.85;;
76256;SDS011;65074;50.436;8.672;2023-03-01T07:42:56;15.25;;;7.60;;
76256;SDS011;65074;50.436;8.672;2023-03-01T07:45:23;16.30;;;7.32;;
76256;SDS011;65074;50.436;8.672;2023-03-01T07:47:50;15.23;;;7.43;;
76256;SDS011;65074;50.436;8.672;2023-03-01T07:50:16;17.15;;;7.18;;
76256;SDS011;65074;50.436;8.672;2023-03-01T07:52:44;16.55;;;7.82;;
76256;SDS011;65074;50.436;8.672;2023-03-01T07:55:10;17.27;;;7.32;;
76256;SDS011;65074;50.436;8.672;2023-03-01T07:57:35;18.58;;;8.40;;
76256;SDS011;65074;50.436;8.672;2023-03-01T08:00:01;20.60;;;8.70;;
76256;SDS011;65074;50.436;8.672;2023-03-01T08:02:37;19.25;;;8.73;;
76256;SDS011;65074;50.436;8.672;2023-03-01T08:05:02;18.13;;;8.10;;
76256;SDS011;65074;50.436;8.672;2023-03-01T08:07:28;17.67;;;8.00;;
76256;SDS011;65074;50.436;8.672;2023-03-01T08:09:53;16.63;;;8.30;;
76256;SDS011;65074;50.436;8.672;2023-03-01T08:12:19;16.63;;;8.40;;
76256;SDS011;65074;50.436;8.672;2023-03-01T08:14:44;15.90;;;8.05;;
76256;SDS011;65074;50.436;8.672;2023-03-01T08:17:10;15.07;;;8.15;;
76256;SDS011;65074;50.436;8.672;2023-03-01T08:19:35;15.73;;;7.28;;
76256;SDS011;65074;50.436;8.672;2023-03-01T08:22:01;14.57;;;6.22;;
76256;SDS011;65074;50.436;8.672;2023-03-01T08:24:27;15.63;;;8.57;;
76256;SDS011;65074;50.436;8.672;2023-03-01T08:26:53;13.05;;;6.78;;
76256;SDS011;65074;50.436;8.672;2023-03-01T08:29:19;15.32;;;6.60;;
76256;SDS011;65074;50.436;8.672;2023-03-01T08:31:45;12.30;;;6.93;;
76256;SDS011;65074;50.436;8.672;2023-03-01T08:34:12;17.23;;;7.38;;
76256;SDS011;65074;50.436;8.672;2023-03-01T08:36:39;14.38;;;7.35;;
76256;SDS011;65074;50.436;8.672;2023-03-01T08:39:07;14.98;;;7.40;;
76256;SDS011;65074;50.436;8.672;2023-03-01T08:41:33;12.57;;;5.90;;
76256;SDS011;65074;50.436;8.672;2023-03-01T08:43:59;18.33;;;7.10;;
76256;SDS011;65074;50.436;8.672;2023-03-01T08:46:28;12.00;;;6.55;;
76256;SDS011;65074;50.436;8.672;2023-03-01T08:48:56;15.30;;;7.63;;
76256;SDS011;65074;50.436;8.672;2023-03-01T08:51:22;11.45;;;6.40;;
76256;SDS011;65074;50.436;8.672;2023-03-01T08:53:48;14.48;;;7.10;;
76256;SDS011;65074;50.436;8.672;2023-03-01T08:56:13;14.15;;;6.65;;
76256;SDS011;65074;50.436;8.672;2023-03-01T08:58:43;18.27;;;7.70;;
76256;SDS011;65074;50.436;8.672;2023-03-01T09:01:13;14.32;;;6.80;;
76256;SDS011;65074;50.436;8.672;2023-03-01T09:03:41;15.85;;;6.97;;
76256;SDS011;65074;50.436;8.672;2023-03-01T09:06:06;15.43;;;7.18;;
76256;SDS011;65074;50.436;8.672;2023-03-01T09:08:40;13.23;;;7.13;;
76256;SDS011;65074;50.436;8.672;2023-03-01T09:11:11;12.45;;;6.60;;
76256;SDS011;65074;50.436;8.672;2023-03-01T09:13:38;9.13;;;5.03;;
76256;SDS011;65074;50.436;8.672;2023-03-01T09:16:04;13.20;;;6.65;;
76256;SDS011;65074;50.436;8.672;2023-03-01T09:18:31;13.18;;;5.35;;
76256;SDS011;65074;50.436;8.672;2023-03-01T09:21:01;15.45;;;6.85;;
76256;SDS011;65074;50.436;8.672;2023-03-01T09:23:32;13.18;;;6.82;;
76256;SDS011;65074;50.436;8.672;2023-03-01T09:26:08;12.23;;;6.38;;
76256;SDS011;65074;50.436;8.672;2023-03-01T09:28:35;15.57;;;7.10;;
76256;SDS011;65074;50.436;8.672;2023-03-01T09:31:02;12.82;;;7.15;;
76256;SDS011;65074;50.436;8.672;2023-03-01T09:33:28;12.88;;;6.43;;
76256;SDS011;65074;50.436;8.672;2023-03-01T09:35:58;10.32;;;5.20;;
76256;SDS011;65074;50.436;8.672;2023-03-01T09:38:25;18.42;;;7.07;;
76256;SDS011;65074;50.436;8.672;2023-03-01T09:40:51;15.73;;;7.43;;
76256;SDS011;65074;50.436;8.672;2023-03-01T09:43:20;11.32;;;6.28;;
76256;SDS011;65074;50.436;8.672;2023-03-01T09:45:50;12.30;;;6.22;;
76256;SDS011;65074;50.436;8.672;2023-03-01T09:48:21;10.20;;;5.55;;
76256;SDS011;65074;50.436;8.672;2023-03-01T09:50:51;11.32;;;5.82;;
76256;SDS011;65074;50.436;8.672;2023-03-01T09:53:18;13.52;;;6.30;;
76256;SDS011;65074;50.436;8.672;2023-03-01T09:55:54;9.68;;;5.55;;
76256;SDS011;65074;50.436;8.672;2023-03-01T09:58:37;16.25;;;6.78;;
76256;SDS011;65074;50.436;8.672;2023-03-01T10:06:29;11.50;;;5.57;;
76256;SDS011;65074;50.436;8.672;2023-03-01T10:09:00;12.00;;;5.93;;
76256;SDS011;65074;50.436;8.672;2023-03-01T10:11:40;14.00;;;7.25;;
76256;SDS011;65074;50.436;8.672;2023-03-01T10:16:58;15.57;;;6.97;;
76256;SDS011;65074;50.436;8.672;2023-03-01T10:19:45;14.05;;;5.90;;
76256;SDS011;65074;50.436;8.672;2023-03-01T10:22:13;13.00;;;6.35;;
76256;SDS011;65074;50.436;8.672;2023-03-01T10:24:43;10.43;;;6.25;;
76256;SDS011;65074;50.436;8.672;2023-03-01T10:32:32;16.45;;;7.22;;
76256;SDS011;65074;50.436;8.672;2023-03-01T10:34:58;13.55;;;7.68;;
76256;SDS011;65074;50.436;8.672;2023-03-01T10:37:24;13.35;;;6.53;;
76256;SDS011;65074;50.436;8.672;2023-03-01T10:40:00;14.38;;;7.95;;
76256;SDS011;65074;50.436;8.672;2023-03-01T10:42:31;10.90;;;6.45;;
76256;SDS011;65074;50.436;8.672;2023-03-01T10:44:58;11.80;;;6.40;;
76256;SDS011;65074;50.436;8.672;2023-03-01T10:48:10;13.50;;;7.53;;
76256;SDS011;65074;50.436;8.672;2023-03-01T10:50:38;11.07;;;6.00;;
76256;SDS011;65074;50.436;8.672;2023-03-01T10:53:08;11.95;;;5.80;;
76256;SDS011;65074;50.436;8.672;2023-03-01T10:55:46;9.75;;;5.85;;
76256;SDS011;65074;50.436;8.672;2023-03-01T10:58:19;10.70;;;6.30;;
76256;SDS011;65074;50.436;8.672;2023-03-01T11:03:19;10.38;;;5.75;;
76256;SDS011;65074;50.436;8.672;2023-03-01T11:05:51;13.35;;;6.53;;
76256;SDS011;65074;50.436;8.672;2023-03-01T11:08:39;12.65;;;6.32;;
76256;SDS011;65074;50.436;8.672;2023-03-01T11:13:39;12.10;;;6.10;;
76256;SDS011;65074;50.436;8.672;2023-03-01T11:16:16;13.13;;;6.32;;
76256;SDS011;65074;50.436;8.672;2023-03-01T11:18:56;11.35;;;5.88;;
76256;SDS011;65074;50.436;8.672;2023-03-01T11:21:26;10.02;;;4.10;;
76256;SDS011;65074;50.436;8.672;2023-03-01T11:23:55;6.95;;;3.75;;
76256;SDS011;65074;50.436;8.672;2023-03-01T11:26:24;12.95;;;5.68;;
76256;SDS011;65074;50.436;8.672;2023-03-01T11:28:50;13.63;;;6.22;;
76256;SDS011;65074;50.436;8.672;2023-03-01T11:31:20;13.65;;;6.55;;
76256;SDS011;65074;50.436;8.672;2023-03-01T11:33:58;10.70;;;6.15;;
76256;SDS011;65074;50.436;8.672;2023-03-01T11:36:47;13.13;;;6.22;;
76256;SDS011;65074;50.436;8.672;2023-03-01T11:45:15;8.40;;;4.82;;
76256;SDS011;65074;50.436;8.672;2023-03-01T11:47:44;10.07;;;5.80;;
76256;SDS011;65074;50.436;8.672;2023-03-01T11:56:03;8.77;;;5.35;;
76256;SDS011;65074;50.436;8.672;2023-03-01T12:07:37;8.95;;;5.57;;
76256;SDS011;65074;50.436;8.672;2023-03-01T12:10:27;10.85;;;6.38;;
76256;SDS011;65074;50.436;8.672;2023-03-01T12:16:07;9.18;;;5.93;;
76256;SDS011;65074;50.436;8.672;2023-03-01T12:27:37;11.13;;;6.20;;
76256;SDS011;65074;50.436;8.672;2023-03-01T12:30:24;9.18;;;5.95;;
76256;SDS011;65074;50.436;8.672;2023-03-01T12:35:54;12.95;;;6.13;;
76256;SDS011;65074;50.436;8.672;2023-03-01T12:38:32;10.63;;;6.30;;
76256;SDS011;65074;50.436;8.672;2023-03-01T12:41:18;9.68;;;6.68;;
76256;SDS011;65074;50.436;8.672;2023-03-01T12:52:35;9.88;;;6.50;;
76256;SDS011;65074;50.436;8.672;2023-03-01T12:55:24;11.77;;;6.03;;
76256;SDS011;65074;50.436;8.672;2023-03-01T13:00:45;10.43;;;6.23;;
76256;SDS011;65074;50.436;8.672;2023-03-01T13:03:28;9.55;;;6.50;;
76256;SDS011;65074;50.436;8.672;2023-03-01T13:09:04;8.70;;;5.82;;
76256;SDS011;65074;50.436;8.672;2023-03-01T13:11:41;10.25;;;6.53;;
76256;SDS011;65074;50.436;8.672;2023-03-01T13:16:48;8.55;;;6.05;;
76256;SDS011;65074;50.436;8.672;2023-03-01T13:19:16;10.75;;;6.20;;
76256;SDS011;65074;50.436;8.672;2023-03-01T13:21:47;9.30;;;6.15;;
76256;SDS011;65074;50.436;8.672;2023-03-01T13:24:57;9.23;;;5.95;;
76256;SDS011;65074;50.436;8.672;2023-03-01T13:32:28;7.93;;;5.75;;
76256;SDS011;65074;50.436;8.672;2023-03-01T13:35:01;8.50;;;5.57;;
76256;SDS011;65074;50.436;8.672;2023-03-01T13:37:47;8.18;;;5.65;;
76256;SDS011;65074;50.436;8.672;2023-03-01T13:42:42;10.63;;;6.30;;
76256;SDS011;65074;50.436;8.672;2023-03-01T13:48:01;9.50;;;6.47;;
76256;SDS011;65074;50.436;8.672;2023-03-01T13:50:33;7.85;;;5.28;;
76256;SDS011;65074;50.436;8.672;2023-03-01T13:53:09;9.25;;;6.03;;
76256;SDS011;65074;50.436;8.672;2023-03-01T13:55:41;10.20;;;5.82;;
76256;SDS011;65074;50.436;8.672;2023-03-01T14:00:41;10.00;;;6.10;;
76256;SDS011;65074;50.436;8.672;2023-03-01T14:03:11;9.85;;;6.28;;
76256;SDS011;65074;50.436;8.672;2023-03-01T14:05:40;10.88;;;6.22;;
76256;SDS011;65074;50.436;8.672;2023-03-01T14:08:22;10.48;;;6.43;;
76256;SDS011;65074;50.436;8.672;2023-03-01T14:10:53;10.27;;;6.50;;
76256;SDS011;65074;50.436;8.672;2023-03-01T14:13:31;8.93;;;5.85;;
76256;SDS011;65074;50.436;8.672;2023-03-01T14:21:23;10.38;;;5.95;;
76256;SDS011;65074;50.436;8.672;2023-03-01T14:23:50;11.68;;;5.55;;
76256;SDS011;65074;50.436;8.672;2023-03-01T14:26:20;10.20;;;5.80;;
76256;SDS011;65074;50.436;8.672;2023-03-01T14:28:47;10.65;;;6.53;;
76256;SDS011;65074;50.436;8.672;2023-03-01T14:31:34;8.70;;;6.30;;
76256;SDS011;65074;50.436;8.672;2023-03-01T14:34:02;8.43;;;5.80;;
76256;SDS011;65074;50.436;8.672;2023-03-01T14:36:29;9.25;;;6.28;;
76256;SDS011;65074;50.436;8.672;2023-03-01T14:38:55;9.55;;;5.65;;
76256;SDS011;65074;50.436;8.672;2023-03-01T14:41:24;10.13;;;6.15;;
76256;SDS011;65074;50.436;8.672;2023-03-01T14:43:53;9.48;;;5.68;;
76256;SDS011;65074;50.436;8.672;2023-03-01T14:46:32;9.75;;;6.20;;
76256;SDS011;65074;50.436;8.672;2023-03-01T14:57:15;9.15;;;6.15;;
76256;SDS011;65074;50.436;8.672;2023-03-01T14:59:42;9.70;;;5.93;;
76256;SDS011;65074;50.436;8.672;2023-03-01T15:02:11;9.30;;;5.88;;
76256;SDS011;65074;50.436;8.672;2023-03-01T15:04:42;9.27;;;5.82;;
76256;SDS011;65074;50.436;8.672;2023-03-01T15:07:11;8.38;;;5.43;;
76256;SDS011;65074;50.436;8.672;2023-03-01T15:09:39;9.82;;;5.55;;
76256;SDS011;65074;50.436;8.672;2023-03-01T15:14:59;10.57;;;4.95;;
76256;SDS011;65074;50.436;8.672;2023-03-01T15:19:56;10.55;;;5.57;;
76256;SDS011;65074;50.436;8.672;2023-03-01T15:22:21;9.25;;;5.75;;
76256;SDS011;65074;50.436;8.672;2023-03-01T15:24:50;13.05;;;5.40;;
76256;SDS011;65074;50.436;8.672;2023-03-01T15:27:16;11.13;;;4.55;;
76256;SDS011;65074;50.436;8.672;2023-03-01T15:29:54;10.65;;;5.05;;
76256;SDS011;65074;50.436;8.672;2023-03-01T15:32:24;9.32;;;5.10;;
76256;SDS011;65074;50.436;8.672;2023-03-01T15:34:52;8.38;;;5.07;;
76256;SDS011;65074;50.436;8.672;2023-03-01T15:40:25;8.75;;;4.25;;
76256;SDS011;65074;50.436;8.672;2023-03-01T15:43:05;8.25;;;4.60;;
76256;SDS011;65074;50.436;8.672;2023-03-01T15:45:32;8.32;;;5.10;;
76256;SDS011;65074;50.436;8.672;2023-03-01T15:48:17;6.63;;;4.00;;
76256;SDS011;65074;50.436;8.672;2023-03-01T15:50:53;8.07;;;4.43;;
76256;SDS011;65074;50.436;8.672;2023-03-01T15:53:19;9.07;;;5.18;;
76256;SDS011;65074;50.436;8.672;2023-03-01T15:55:45;8.93;;;4.43;;
76256;SDS011;65074;50.436;8.672;2023-03-01T15:58:18;8.38;;;4.85;;
76256;SDS011;65074;50.436;8.672;2023-03-01T16:00:47;6.90;;;3.60;;
76256;SDS011;65074;50.436;8.672;2023-03-01T16:03:16;9.38;;;4.35;;
76256;SDS011;65074;50.436;8.672;2023-03-01T16:08:12;10.25;;;4.85;;
76256;SDS011;65074;50.436;8.672;2023-03-01T16:10:37;7.70;;;4.07;;
76256;SDS011;65074;50.436;8.672;2023-03-01T16:13:03;8.57;;;4.20;;
76256;SDS011;65074;50.436;8.672;2023-03-01T16:15:30;8.43;;;4.95;;
76256;SDS011;65074;50.436;8.672;2023-03-01T16:17:59;9.43;;;4.60;;
76256;SDS011;65074;50.436;8.672;2023-03-01T16:20:25;8.05;;;4.65;;
76256;SDS011;65074;50.436;8.672;2023-03-01T16:22:51;8.25;;;4.30;;
76256;SDS011;65074;50.436;8.672;2023-03-01T16:25:17;10.68;;;4.75;;
76256;SDS011;65074;50.436;8.672;2023-03-01T16:27:45;8.00;;;4.40;;
76256;SDS011;65074;50.436;8.672;2023-03-01T16:30:12;7.65;;;4.13;;
76256;SDS011;65074;50.436;8.672;2023-03-01T16:32:40;7.25;;;4.40;;
76256;SDS011;65074;50.436;8.672;2023-03-01T16:35:07;5.22;;;3.63;;
76256;SDS011;65074;50.436;8.672;2023-03-01T16:37:34;5.97;;;2.92;;
76256;SDS011;65074;50.436;8.672;2023-03-01T16:40:00;4.43;;;3.03;;
76256;SDS011;65074;50.436;8.672;2023-03-01T16:42:25;10.30;;;3.95;;
76256;SDS011;65074;50.436;8.672;2023-03-01T16:44:55;8.10;;;4.95;;
76256;SDS011;65074;50.436;8.672;2023-03-01T16:47:21;7.38;;;4.63;;
76256;SDS011;65074;50.436;8.672;2023-03-01T16:49:46;9.30;;;4.28;;